createdAt,value
2018-09-17T06:11:26.258Z,44.29
2018-09-17T06:13:56.392Z,45.64
2018-09-17T06:16:26.358Z,46.51
2018-09-17T06:18:56.329Z,48.09
2018-09-17T06:21:26.352Z,48.49
2018-09-17T06:23:56.383Z,50.29
2018-09-17T06:26:26.473Z,50.54
2018-09-17T06:28:58.503Z,51.59
2018-09-17T06:31:28.648Z,52.44
2018-09-17T06:33:58.913Z,53.17
2018-09-17T06:36:28.939Z,53.53
2018-09-17T06:38:59.961Z,54.95
2018-09-17T06:41:30.086Z,55.36
2018-09-17T06:44:00.128Z,55.33
2018-09-17T06:49:05.287Z,57.16
2018-09-17T06:51:35.347Z,57.83
2018-09-17T06:54:05.427Z,58.07
2018-09-17T06:56:35.501Z,57.64
2018-09-17T06:59:05.543Z,58.67
2018-09-17T07:01:35.590Z,58.77
2018-09-17T07:04:05.566Z,60.09
2018-09-17T07:06:35.540Z,59.13
2018-09-17T07:09:08.177Z,60.90
2018-09-17T07:11:38.296Z,60.36
2018-09-17T07:14:08.434Z,60.12
2018-09-17T07:16:38.848Z,61.34
2018-09-17T07:19:08.814Z,60.14
2018-09-17T07:21:38.815Z,59.53
2018-09-17T07:24:08.872Z,60.99
2018-09-17T07:26:38.867Z,60.74
2018-09-17T07:29:09.085Z,60.91
2018-09-17T07:31:39.021Z,60.12
2018-09-17T07:34:08.951Z,59.31
2018-09-17T07:36:39.975Z,60.09
2018-09-17T07:39:11.727Z,59.80
2018-09-17T07:41:41.762Z,58.56
2018-09-17T07:44:11.711Z,58.02
2018-09-17T07:46:41.714Z,58.11
2018-09-17T07:49:11.636Z,55.27
2018-09-17T07:51:41.634Z,56.68
2018-09-17T07:54:11.655Z,54.12
2018-09-17T07:56:42.669Z,54.73
2018-09-17T07:59:12.679Z,53.70
2018-09-17T08:01:42.710Z,54.23
2018-09-17T08:04:12.732Z,53.32
2018-09-17T08:06:42.717Z,53.47
2018-09-17T08:09:16.266Z,53.75
2018-09-17T08:11:46.357Z,52.81
2018-09-17T08:14:16.446Z,52.16
2018-09-17T08:16:46.421Z,52.30
2018-09-17T08:19:16.449Z,52.39
2018-09-17T08:21:46.431Z,51.95
2018-09-17T08:24:16.467Z,51.53
2018-09-17T08:26:46.565Z,49.31
2018-09-17T08:29:17.558Z,49.55
2018-09-17T08:31:47.483Z,49.33
2018-09-17T08:34:17.446Z,50.09
2018-09-17T08:36:47.424Z,48.09
2018-09-17T08:39:17.418Z,48.24
2018-09-17T08:41:48.724Z,48.03
2018-09-17T08:44:19.730Z,48.40
2018-09-17T08:46:50.737Z,49.93
2018-09-17T08:49:20.811Z,47.58
2018-09-17T08:51:50.793Z,47.00
2018-09-17T08:54:21.658Z,46.34
2018-09-17T08:56:56.521Z,46.27
2018-09-17T08:59:31.638Z,47.92
2018-09-17T09:02:06.852Z,46.97
2018-09-17T09:04:41.808Z,45.77
2018-09-17T09:07:15.783Z,46.14
2018-09-17T09:09:45.770Z,45.37
2018-09-17T09:12:20.924Z,45.33
2018-09-17T09:14:55.178Z,44.59
2018-09-17T09:17:25.172Z,43.51
2018-09-17T09:19:55.115Z,42.65
2018-09-17T09:22:25.414Z,42.89
2018-09-17T09:24:57.708Z,42.32
2018-09-17T09:27:27.751Z,42.59
2018-09-17T09:29:57.831Z,41.55
2018-09-17T09:32:28.730Z,42.55
2018-09-17T09:34:58.780Z,41.63
2018-09-17T09:37:28.766Z,41.74
2018-09-17T09:39:58.838Z,41.43
2018-09-17T09:42:28.836Z,40.87
2018-09-17T09:44:58.827Z,39.83
2018-09-17T09:47:28.759Z,40.14
2018-09-17T09:49:58.841Z,39.83
2018-09-17T09:52:28.924Z,40.31
2018-09-17T09:54:59.895Z,39.54
2018-09-17T09:57:29.981Z,39.81
2018-09-17T10:00:00.019Z,40.67
2018-09-17T10:02:35.808Z,40.24
2018-09-17T10:05:06.502Z,39.92
2018-09-17T10:07:36.496Z,40.21
2018-09-17T10:11:12.942Z,38.92
2018-09-17T10:13:47.839Z,38.15
2018-09-17T10:16:19.746Z,38.25
2018-09-17T10:18:54.714Z,38.74
2018-09-17T10:21:25.324Z,38.70
2018-09-17T10:23:55.414Z,37.29
2018-09-17T10:26:26.530Z,37.22
2018-09-17T10:28:56.688Z,35.87
2018-09-17T10:31:26.808Z,37.23
2018-09-17T10:33:56.800Z,36.58
2018-09-17T10:36:26.758Z,37.05
2018-09-17T10:38:56.622Z,36.58
2018-09-17T10:41:26.601Z,36.63
2018-09-17T10:43:58.087Z,35.30
2018-09-17T10:46:28.383Z,34.68
2018-09-17T10:48:59.369Z,35.12
2018-09-17T10:51:29.357Z,35.46
2018-09-17T10:53:59.425Z,34.32
2018-09-17T10:56:29.342Z,34.29
2018-09-17T10:58:59.316Z,33.73
2018-09-17T11:01:30.176Z,34.62
2018-09-17T11:04:00.153Z,34.01
2018-09-17T11:06:30.245Z,33.98
2018-09-17T11:09:01.658Z,32.99
2018-09-17T11:11:31.686Z,34.10
2018-09-17T11:14:02.540Z,33.97
2018-09-17T11:16:32.316Z,32.50
2018-09-17T11:19:02.308Z,32.75
2018-09-17T11:21:32.066Z,33.09
2018-09-17T11:24:02.090Z,34.20
2018-09-17T11:26:32.092Z,33.73
2018-09-17T11:29:02.039Z,32.25
2018-09-17T11:31:32.028Z,33.78
2018-09-17T11:34:02.924Z,34.35
2018-09-17T11:36:32.955Z,31.86
2018-09-17T11:39:02.884Z,33.83
2018-09-17T11:41:32.823Z,32.21
2018-09-17T11:44:02.861Z,31.77
2018-09-17T11:46:32.862Z,30.92
2018-09-17T11:49:02.867Z,30.92
2018-09-17T11:51:32.892Z,30.54
2018-09-17T11:54:02.924Z,30.58
2018-09-17T11:56:32.842Z,30.29
2018-09-17T11:59:02.832Z,28.61
2018-09-17T12:01:37.741Z,29.63
2018-09-17T12:04:12.963Z,28.99
2018-09-17T12:06:47.781Z,28.55
2018-09-17T12:09:17.921Z,28.68
2018-09-17T12:11:47.867Z,28.74
2018-09-17T12:14:18.784Z,28.57
2018-09-17T12:16:48.659Z,30.21
2018-09-17T12:19:19.101Z,30.51
2018-09-17T12:21:49.047Z,29.03
2018-09-17T12:24:19.057Z,28.42
2018-09-17T12:26:50.246Z,26.78
2018-09-17T12:29:20.240Z,28.10
2018-09-17T12:31:50.206Z,27.98
2018-09-17T12:34:20.215Z,27.62
2018-09-17T12:36:50.172Z,27.52
2018-09-17T12:39:20.110Z,30.21
2018-09-17T12:41:50.128Z,28.49
2018-09-17T12:44:20.119Z,26.75
2018-09-17T12:46:50.108Z,26.56
2018-09-17T12:49:20.185Z,27.06
2018-09-17T12:51:51.226Z,28.05
2018-09-17T12:54:22.855Z,27.42
2018-09-17T12:56:52.870Z,27.27
2018-09-17T12:59:22.871Z,26.64
2018-09-17T13:01:52.832Z,28.12
2018-09-17T13:04:22.782Z,27.04
2018-09-17T13:06:52.779Z,26.01
2018-09-17T13:09:22.786Z,25.17
2018-09-17T13:11:52.815Z,26.35
2018-09-17T13:14:22.811Z,26.15
2018-09-17T13:16:52.785Z,25.84
2018-09-17T13:19:22.734Z,25.67
2018-09-17T13:21:52.754Z,25.50
2018-09-17T13:24:22.733Z,26.64
2018-09-17T13:26:52.701Z,26.63
2018-09-17T13:29:22.694Z,25.40
2018-09-17T13:31:52.748Z,26.37
2018-09-17T13:34:22.606Z,25.56
2018-09-17T13:36:52.656Z,25.43
2018-09-17T13:39:22.680Z,27.14
2018-09-17T13:41:52.683Z,25.43
2018-09-17T13:44:22.646Z,25.60
2018-09-17T13:46:52.880Z,26.02
2018-09-17T13:49:22.838Z,24.89
2018-09-17T13:51:52.831Z,25.25
2018-09-17T13:54:22.839Z,25.07
2018-09-17T13:56:52.846Z,25.21
2018-09-17T13:59:22.989Z,25.96
2018-09-17T14:01:52.998Z,26.98
2018-09-17T14:04:24.135Z,25.20
2018-09-17T14:06:54.085Z,26.25
2018-09-17T14:09:24.052Z,25.23
2018-09-17T14:11:54.099Z,25.52
2018-09-17T14:14:24.140Z,24.61
2018-09-17T14:16:54.181Z,24.48
2018-09-17T14:19:24.212Z,26.47
2018-09-17T14:21:54.210Z,24.69
2018-09-17T14:24:24.226Z,24.34
2018-09-17T14:26:54.246Z,25.42
2018-09-17T14:29:24.977Z,25.00
2018-09-17T14:32:58.648Z,24.81
2018-09-17T14:35:28.604Z,24.94
2018-09-17T14:37:58.504Z,24.81
2018-09-17T14:40:30.346Z,26.76
2018-09-17T14:43:00.341Z,28.98
2018-09-17T14:45:30.532Z,27.47
2018-09-17T14:48:00.584Z,26.50
2018-09-17T14:50:30.617Z,27.49
2018-09-17T14:53:00.686Z,26.02
2018-09-17T14:55:30.670Z,27.70
2018-09-17T14:58:00.648Z,27.64
2018-09-17T15:00:30.693Z,25.04
2018-09-17T15:03:00.696Z,25.71
2018-09-17T15:05:32.781Z,26.94
2018-09-17T15:08:03.202Z,26.32
2018-09-17T15:10:33.242Z,28.36
2018-09-17T15:13:03.098Z,29.50
2018-09-17T15:15:32.966Z,32.27
2018-09-17T15:18:02.588Z,30.95
2018-09-17T15:20:32.194Z,32.03
2018-09-17T15:23:01.827Z,28.28
2018-09-17T15:25:31.442Z,29.47
2018-09-17T15:28:01.153Z,29.93
2018-09-17T15:30:30.800Z,32.52
2018-09-17T15:33:00.448Z,32.67
2018-09-17T15:35:30.055Z,30.51
2018-09-17T15:37:59.761Z,31.88
2018-09-17T15:40:29.409Z,30.95
2018-09-17T15:42:59.016Z,29.44
2018-09-17T15:45:28.638Z,32.50
2018-09-17T15:47:58.240Z,33.83
2018-09-17T15:50:27.888Z,34.83
2018-09-17T15:52:57.487Z,34.19
2018-09-17T15:55:27.127Z,34.51
2018-09-17T15:57:56.856Z,33.32
2018-09-17T16:00:26.475Z,33.65
2018-09-17T16:02:56.825Z,35.45
2018-09-17T16:05:26.833Z,36.40
2018-09-17T16:07:57.735Z,36.42
2018-09-17T16:10:27.756Z,37.05
2018-09-17T16:12:57.704Z,36.28
2018-09-17T16:15:27.722Z,38.29
2018-09-17T16:17:57.724Z,36.83
2018-09-17T16:20:27.748Z,36.06
2018-09-17T16:22:57.730Z,36.45
2018-09-17T16:25:27.773Z,37.84
2018-09-17T16:27:57.805Z,37.28
2018-09-17T16:30:27.789Z,37.07
2018-09-17T16:32:57.806Z,37.56
2018-09-17T16:35:28.841Z,38.58
2018-09-17T16:37:59.011Z,37.69
2018-09-17T16:40:28.998Z,37.46
2018-09-17T16:42:58.971Z,39.09
2018-09-17T16:45:30.231Z,39.81
2018-09-17T16:48:00.248Z,39.63
2018-09-17T16:50:31.344Z,39.63
2018-09-17T16:53:01.459Z,40.25
2018-09-17T16:55:31.470Z,41.08
2018-09-17T16:58:02.431Z,42.03
2018-09-17T17:00:32.488Z,41.96
2018-09-17T17:03:02.516Z,42.33
2018-09-17T17:05:32.522Z,43.43
2018-09-17T17:08:02.536Z,42.97
2018-09-17T17:10:32.657Z,43.46
2018-09-17T17:13:02.607Z,43.58
2018-09-17T17:15:32.781Z,44.53
2018-09-17T17:18:02.840Z,44.92
2018-09-17T17:20:32.876Z,45.25
2018-09-17T17:23:02.933Z,45.54
2018-09-17T17:25:32.992Z,45.73
2018-09-17T17:28:03.019Z,46.38
2018-09-17T17:30:33.110Z,46.40
2018-09-17T17:33:03.184Z,47.44
2018-09-17T17:35:33.521Z,46.89
2018-09-17T17:38:03.552Z,47.43
2018-09-17T17:40:33.724Z,47.68
2018-09-17T17:43:03.642Z,47.74
2018-09-17T17:45:33.678Z,48.55
2018-09-17T17:48:03.771Z,47.00
2018-09-17T17:50:33.772Z,48.18
2018-09-17T17:53:03.775Z,48.34
2018-09-17T17:55:33.800Z,48.40
2018-09-17T17:58:04.855Z,48.20
2018-09-17T18:00:34.811Z,49.35
2018-09-17T18:03:04.872Z,49.10
2018-09-17T18:05:34.974Z,48.24
2018-09-17T18:08:05.059Z,49.10
2018-09-17T18:10:35.016Z,48.80
2018-09-17T18:13:05.246Z,50.33
2018-09-17T18:15:35.232Z,50.24
2018-09-17T18:18:05.336Z,49.85
2018-09-17T18:20:35.403Z,50.65
2018-09-17T18:23:05.418Z,51.12
2018-09-17T18:25:35.547Z,50.51
2018-09-17T18:28:05.543Z,50.22
2018-09-17T18:30:36.337Z,50.03
2018-09-17T18:33:06.063Z,49.91
2018-09-17T18:35:35.691Z,50.32
2018-09-17T18:38:05.743Z,49.62
2018-09-17T18:40:35.790Z,50.31
2018-09-17T18:43:05.918Z,49.51
2018-09-17T18:45:36.023Z,49.86
2018-09-17T18:48:06.146Z,49.97
2018-09-17T18:50:37.130Z,50.53
2018-09-17T18:53:08.096Z,50.25
2018-09-17T18:55:38.171Z,50.73
2018-09-17T18:58:08.185Z,50.11
2018-09-17T19:00:38.210Z,50.53
2018-09-17T19:03:08.406Z,49.92
2018-09-17T19:05:38.421Z,49.89
2018-09-17T19:08:08.458Z,50.80
2018-09-17T19:10:38.418Z,49.94
2018-09-17T19:13:09.509Z,49.76
2018-09-17T19:15:46.565Z,49.75
2018-09-17T19:18:18.563Z,49.70
2018-09-17T19:20:50.000Z,50.30
2018-09-17T19:23:25.353Z,50.17
2018-09-17T19:25:55.638Z,49.92
2018-09-17T19:28:30.735Z,49.81
2018-09-17T19:31:00.628Z,50.59
2018-09-17T19:33:30.299Z,50.40
2018-09-17T19:36:00.175Z,49.69
2018-09-17T19:38:34.992Z,49.62
2018-09-17T19:41:04.976Z,49.53
2018-09-17T19:43:35.069Z,50.36
2018-09-17T19:46:11.126Z,50.41
2018-09-17T19:48:41.276Z,49.89
2018-09-17T19:51:16.385Z,50.78
2018-09-17T19:53:46.457Z,50.62
2018-09-17T19:56:16.521Z,50.79
2018-09-17T19:58:51.659Z,51.44
2018-09-17T20:01:23.895Z,52.46
2018-09-17T20:03:53.948Z,51.28
2018-09-17T20:06:25.994Z,49.99
2018-09-17T20:08:56.122Z,50.08
2018-09-17T20:11:27.219Z,50.89
2018-09-17T20:13:57.257Z,51.23
2018-09-17T20:16:29.086Z,50.89
2018-09-17T20:18:59.123Z,50.83
2018-09-17T20:21:29.161Z,50.86
2018-09-17T20:23:59.109Z,51.23
2018-09-17T20:26:29.182Z,51.31
2018-09-17T20:28:59.232Z,50.87
2018-09-17T20:31:29.290Z,50.32
2018-09-17T20:33:59.082Z,50.86
2018-09-17T20:36:28.813Z,51.17
2018-09-17T20:38:58.576Z,51.83
2018-09-17T20:41:28.654Z,51.51
2018-09-17T20:43:58.394Z,50.87
2018-09-17T20:46:28.251Z,51.11
2018-09-17T20:48:58.225Z,51.58
2018-09-17T20:51:28.281Z,51.60
2018-09-17T20:53:58.292Z,50.63
2018-09-17T20:56:28.391Z,51.39
2018-09-17T20:58:58.392Z,52.20
2018-09-17T21:01:28.695Z,52.03
2018-09-17T21:03:58.541Z,51.43
2018-09-17T21:06:28.615Z,52.10
2018-09-17T21:08:58.635Z,51.68
2018-09-17T21:11:28.675Z,52.28
2018-09-17T21:14:00.468Z,51.02
2018-09-17T21:16:30.451Z,52.02
2018-09-17T21:19:00.548Z,51.52
2018-09-17T21:21:30.526Z,51.62
2018-09-17T21:24:00.540Z,50.84
2018-09-17T21:26:30.514Z,51.58
2018-09-17T21:29:00.470Z,51.07
2018-09-17T21:31:30.407Z,51.43
2018-09-17T21:34:00.560Z,50.87
2018-09-17T21:36:30.574Z,51.22
2018-09-17T21:39:00.555Z,51.12
2018-09-17T21:41:30.590Z,51.31
2018-09-17T21:44:00.574Z,51.72
2018-09-17T21:46:30.598Z,52.17
2018-09-17T21:49:00.643Z,51.96
2018-09-17T21:51:30.662Z,51.86
2018-09-17T21:54:00.628Z,52.03
2018-09-17T21:56:30.608Z,51.37
2018-09-17T21:59:00.620Z,51.52
2018-09-17T22:01:33.102Z,51.51
2018-09-17T22:04:03.081Z,52.07
2018-09-17T22:06:33.102Z,52.18
2018-09-17T22:09:03.316Z,51.64
2018-09-17T22:11:33.307Z,52.65
2018-09-17T22:14:03.320Z,52.67
2018-09-17T22:16:33.311Z,52.30
2018-09-17T22:19:03.288Z,52.06
2018-09-17T22:21:33.286Z,52.04
2018-09-17T22:24:03.290Z,52.28
2018-09-17T22:26:33.296Z,51.73
2018-09-17T22:29:03.334Z,52.84
2018-09-17T22:31:33.222Z,51.99
2018-09-17T22:34:03.325Z,52.00
2018-09-17T22:36:33.290Z,52.67
2018-09-17T22:39:03.378Z,52.49
2018-09-17T22:41:33.399Z,52.48
2018-09-17T22:44:03.402Z,51.89
2018-09-17T22:46:34.040Z,52.90
2018-09-17T22:49:04.071Z,52.32
2018-09-17T22:51:34.019Z,52.72
2018-09-17T22:54:03.974Z,52.62
2018-09-17T22:56:33.966Z,52.48
2018-09-17T22:59:03.974Z,52.66
2018-09-17T23:01:33.909Z,52.23
2018-09-17T23:04:03.907Z,52.28
2018-09-17T23:06:33.958Z,52.36
2018-09-17T23:09:04.079Z,52.25
2018-09-17T23:11:34.070Z,52.77
2018-09-17T23:14:04.046Z,52.11
2018-09-17T23:16:33.998Z,51.98
2018-09-17T23:19:04.828Z,52.63
2018-09-17T23:21:34.497Z,52.37
2018-09-17T23:24:04.531Z,52.78
2018-09-17T23:26:34.467Z,51.85
2018-09-17T23:29:04.479Z,51.68
2018-09-17T23:31:34.485Z,51.78
2018-09-17T23:34:04.508Z,51.85
2018-09-17T23:36:34.451Z,51.82
2018-09-17T23:39:08.699Z,51.75
2018-09-17T23:41:39.027Z,51.77
2018-09-17T23:44:08.896Z,53.17
2018-09-17T23:46:38.891Z,52.21
2018-09-17T23:49:08.819Z,52.65
2018-09-17T23:51:38.787Z,52.77
2018-09-17T23:54:08.819Z,52.67
2018-09-17T23:56:38.829Z,52.24
2018-09-17T23:59:08.844Z,51.77
